createdAt,value
2022-11-03T00:00:02.128Z,0.059000000000000004
2022-11-03T00:05:02.239Z,0
2022-11-03T00:10:02.151Z,0
2022-11-03T00:15:02.163Z,0.014
2022-11-03T00:20:02.193Z,0.124
2022-11-03T00:25:02.336Z,0.126
2022-11-03T00:30:02.314Z,0.126
2022-11-03T00:35:02.185Z,0.14100000000000001
2022-11-03T00:40:02.171Z,0.189
2022-11-03T00:45:02.215Z,0.187
2022-11-03T00:50:02.192Z,0.135
2022-11-03T00:55:02.310Z,0
2022-11-03T01:00:02.212Z,0
2022-11-03T01:05:02.156Z,0
2022-11-03T01:10:02.203Z,0
2022-11-03T01:15:02.162Z,0.044
2022-11-03T01:20:02.382Z,0.14300000000000002
2022-11-03T01:25:02.520Z,0.176
2022-11-03T01:30:02.260Z,0.179
2022-11-03T01:35:02.301Z,0.168
2022-11-03T01:40:02.297Z,0.122
2022-11-03T01:45:02.379Z,0.121
2022-11-03T01:50:02.238Z,0.121
2022-11-03T01:55:02.206Z,0.139
2022-11-03T02:00:02.245Z,0.138
2022-11-03T02:05:02.744Z,0.012
2022-11-03T02:10:02.353Z,0
2022-11-03T02:15:02.300Z,0
2022-11-03T02:20:02.247Z,0.061
2022-11-03T02:25:02.296Z,0.126
2022-11-03T02:30:02.387Z,0.134
2022-11-03T02:35:02.242Z,0.139
2022-11-03T02:40:02.480Z,0.139
2022-11-03T02:45:02.319Z,0.14
2022-11-03T02:50:02.429Z,0.155
2022-11-03T02:55:02.393Z,0.19
2022-11-03T03:00:02.322Z,0.017
2022-11-03T03:05:02.413Z,0
2022-11-03T03:10:02.377Z,0
2022-11-03T03:15:02.373Z,0
2022-11-03T03:20:02.473Z,0.05
2022-11-03T03:25:02.384Z,0.127
2022-11-03T03:30:02.281Z,0.126
2022-11-03T03:35:02.378Z,0.14300000000000002
2022-11-03T03:40:02.486Z,0.168
2022-11-03T03:45:02.485Z,0.17200000000000001
2022-11-03T03:50:02.392Z,0.178
2022-11-03T03:55:02.438Z,0.138
2022-11-03T04:00:02.447Z,0.109
2022-11-03T04:05:02.485Z,0.084
2022-11-03T04:10:02.336Z,0
2022-11-03T04:15:02.345Z,0
2022-11-03T04:20:02.352Z,0.038
2022-11-03T04:25:02.480Z,0.184
2022-11-03T04:30:02.642Z,0.188
2022-11-03T04:35:02.425Z,0.167
2022-11-03T04:40:02.378Z,0.137
2022-11-03T04:45:02.381Z,0.137
2022-11-03T04:50:02.522Z,0.138
2022-11-03T04:55:02.423Z,0.137
2022-11-03T05:00:02.462Z,0.14
2022-11-03T05:05:02.343Z,0.007
2022-11-03T05:10:02.504Z,0
2022-11-03T05:15:02.533Z,0.002
2022-11-03T05:20:02.500Z,0
2022-11-03T05:25:02.401Z,0.069
2022-11-03T05:30:02.486Z,0.10200000000000001
2022-11-03T05:35:02.504Z,0.107
2022-11-03T05:40:02.453Z,0.099
2022-11-03T05:45:02.476Z,0.116
2022-11-03T05:50:02.405Z,0.152
2022-11-03T05:55:02.542Z,0.158
2022-11-03T06:00:02.633Z,0.156
2022-11-03T06:05:02.442Z,0.094
2022-11-03T06:10:02.479Z,0
2022-11-03T06:15:02.594Z,0
2022-11-03T06:20:02.550Z,0.033
2022-11-03T06:25:02.782Z,0.054
2022-11-03T06:30:02.558Z,0.234
2022-11-03T06:35:02.590Z,17.482
2022-11-03T06:40:02.535Z,32.048
2022-11-03T06:45:02.607Z,30.189
2022-11-03T06:50:02.613Z,44.715
2022-11-03T06:55:02.567Z,49.269
2022-11-03T07:00:20.165Z,82.34400000000001
2022-11-03T07:05:02.536Z,161.244
2022-11-03T07:10:02.962Z,291.178
2022-11-03T07:15:02.525Z,521.678
2022-11-03T07:20:00.866Z,884.716
2022-11-03T07:25:00.615Z,1264.102
2022-11-03T07:30:00.669Z,1659.935
2022-11-03T07:35:00.676Z,1681.348
2022-11-03T07:40:00.796Z,1592.521
2022-11-03T07:45:00.788Z,1440.968
2022-11-03T07:50:00.677Z,2478.0280000000002
2022-11-03T07:55:00.727Z,2655.527
2022-11-03T08:00:01.569Z,2565.109
2022-11-03T08:05:00.721Z,2784.357
2022-11-03T08:10:00.924Z,2896.098
2022-11-03T08:15:00.696Z,2075.4230000000002
2022-11-03T08:20:00.697Z,2537.73
2022-11-03T08:25:00.748Z,2938.94
2022-11-03T08:30:00.749Z,1962.515
2022-11-03T08:35:00.818Z,1507.336
2022-11-03T08:40:00.704Z,1649.669
2022-11-03T08:45:00.752Z,1223.517
2022-11-03T08:50:00.758Z,1413.521
2022-11-03T08:55:00.769Z,1708.8120000000001
2022-11-03T09:00:00.860Z,3197.5860000000002
2022-11-03T09:05:00.741Z,2892.9030000000002
2022-11-03T09:10:28.525Z,3047.022
2022-11-03T09:15:00.749Z,3920.953
2022-11-03T09:20:00.743Z,3935.175
2022-11-03T09:25:00.933Z,4178.554
2022-11-03T09:30:12.032Z,4016.167
2022-11-03T09:35:00.779Z,3167.5170000000003
2022-11-03T09:40:00.793Z,3509.226
2022-11-03T09:45:00.786Z,3574.493
2022-11-03T09:50:00.908Z,2728.051
2022-11-03T09:55:00.997Z,2633.899
2022-11-03T10:00:00.788Z,2480.255
2022-11-03T10:05:01.827Z,2406.5750000000003
2022-11-03T10:10:00.768Z,2998.457
2022-11-03T10:15:01.405Z,3215.727
2022-11-03T10:20:01.162Z,3041.058
2022-11-03T10:25:00.825Z,2672.3920000000003
2022-11-03T10:30:00.776Z,2837.752
2022-11-03T10:35:00.786Z,2659.202
2022-11-03T10:40:00.956Z,2017.034
2022-11-03T10:45:00.971Z,2485.232
2022-11-03T10:50:00.790Z,2519.338
2022-11-03T10:55:00.829Z,2315.341
2022-11-03T11:00:00.875Z,2478.065
2022-11-03T11:05:01.076Z,2334.674
2022-11-03T11:10:01.059Z,2183.5860000000002
2022-11-03T11:15:00.813Z,2082.35
2022-11-03T11:20:00.899Z,2005.402
2022-11-03T11:25:00.951Z,1705.755
2022-11-03T11:30:01.031Z,1534.886
2022-11-03T11:35:00.902Z,1447.582
2022-11-03T11:40:00.889Z,1433.256
2022-11-03T11:45:00.851Z,1433.78
2022-11-03T11:50:00.944Z,1505.2930000000001
2022-11-03T11:55:01.008Z,2122.827
2022-11-03T12:00:00.882Z,2975.858
2022-11-03T12:05:00.915Z,3159.089
2022-11-03T12:10:00.912Z,2346.43
2022-11-03T12:15:00.924Z,2146.55
2022-11-03T12:20:01.044Z,2469.6710000000003
2022-11-03T12:25:00.854Z,1885.9470000000001
2022-11-03T12:30:00.876Z,1545.2150000000001
2022-11-03T12:35:00.948Z,1465.951
2022-11-03T12:40:00.920Z,1490.656
2022-11-03T12:45:01.088Z,1475.97
2022-11-03T12:50:01.060Z,1608.691
2022-11-03T12:55:00.969Z,1494.265
2022-11-03T13:00:02.407Z,1374.848
2022-11-03T13:05:00.971Z,2518.9030000000002
2022-11-03T13:30:01.018Z,3179.205
2022-11-03T13:35:01.164Z,3254.039
2022-11-03T13:40:01.129Z,2645.273
2022-11-03T13:45:00.995Z,1898.1290000000001
2022-11-03T13:50:13.959Z,1861.474
2022-11-03T14:00:03.511Z,709.325
2022-11-03T14:05:01.993Z,657.582
2022-11-03T14:10:02.606Z,506.49600000000004
2022-11-03T14:15:01.063Z,382.246
2022-11-03T14:20:04.417Z,312.91700000000003
2022-11-03T14:25:01.014Z,267.242
2022-11-03T14:30:01.249Z,238.518
2022-11-03T14:35:01.261Z,220.326
2022-11-03T14:40:01.119Z,196.332
2022-11-03T14:45:00.975Z,161.052
2022-11-03T14:50:01.001Z,119.569
2022-11-03T14:55:01.032Z,76.775
2022-11-03T15:00:01.195Z,41.388
2022-11-03T15:05:01.035Z,23.305
2022-11-03T15:10:01.057Z,27.058
2022-11-03T15:15:01.055Z,11.551
2022-11-03T15:20:01.074Z,0.11900000000000001
2022-11-03T15:25:18.088Z,0.11900000000000001
2022-11-03T15:30:01.212Z,0.126
2022-11-03T15:35:01.060Z,0.17300000000000001
2022-11-03T15:40:01.031Z,0.163
2022-11-03T15:45:01.169Z,0.164
2022-11-03T15:50:01.046Z,0.127
2022-11-03T15:55:01.339Z,0.11
2022-11-03T16:00:01.127Z,0.106
2022-11-03T16:05:01.092Z,0.10400000000000001
2022-11-03T16:10:01.089Z,0.022
2022-11-03T16:15:01.160Z,0.014
2022-11-03T16:20:01.251Z,0.003
2022-11-03T16:25:01.228Z,0.04
2022-11-03T16:30:01.163Z,0.14300000000000002
2022-11-03T16:35:01.136Z,0.106
2022-11-03T16:40:01.121Z,0.093
2022-11-03T16:45:01.935Z,0.093
2022-11-03T16:50:01.230Z,0.107
2022-11-03T16:55:01.372Z,0.10300000000000001
2022-11-03T17:00:01.201Z,0.10300000000000001
2022-11-03T17:05:01.279Z,0.107
2022-11-03T17:10:01.391Z,0.11900000000000001
2022-11-03T17:15:01.215Z,0.096
2022-11-03T17:20:01.293Z,0.04
2022-11-03T17:25:01.399Z,0
2022-11-03T17:30:01.635Z,0
2022-11-03T17:35:01.129Z,0
2022-11-03T17:40:01.336Z,0
2022-11-03T17:45:01.245Z,0
2022-11-03T17:50:01.347Z,0.023
2022-11-03T17:55:01.204Z,0.014
2022-11-03T18:00:01.235Z,0.022
2022-11-03T18:05:01.220Z,0.034
2022-11-03T18:10:01.247Z,0.013000000000000001
2022-11-03T18:15:01.366Z,0.006
2022-11-03T18:20:01.329Z,0.004
2022-11-03T18:25:01.245Z,0.006
2022-11-03T18:30:01.293Z,0.01
2022-11-03T18:35:01.264Z,0.055
2022-11-03T18:40:01.218Z,0.07200000000000001
2022-11-03T18:45:02.816Z,0.114
2022-11-03T18:50:01.383Z,0.068
2022-11-03T18:55:01.258Z,0.20400000000000001
2022-11-03T19:00:01.236Z,0.364
2022-11-03T19:05:01.254Z,0.108
2022-11-03T19:10:01.208Z,0.122
2022-11-03T19:15:01.248Z,0.098
2022-11-03T19:20:01.401Z,0.039
2022-11-03T19:25:01.296Z,0.028
2022-11-03T19:30:01.319Z,0.025
2022-11-03T19:35:01.314Z,0.029
2022-11-03T19:40:01.312Z,0.101
2022-11-03T19:45:01.305Z,0.101
2022-11-03T19:50:01.407Z,0.078
2022-11-03T19:55:01.488Z,0.10400000000000001
2022-11-03T20:00:01.346Z,0.08
2022-11-03T20:05:01.277Z,0.15
2022-11-03T20:10:01.684Z,0.133
2022-11-03T20:15:01.310Z,0.151
2022-11-03T20:20:01.401Z,0.096
2022-11-03T20:25:01.497Z,0.107
2022-11-03T20:30:01.387Z,0.08
2022-11-03T20:35:01.287Z,0.097
2022-11-03T20:40:01.391Z,0.073
2022-11-03T20:45:01.352Z,0.10200000000000001
2022-11-03T20:50:01.568Z,0.146
2022-11-03T20:55:01.314Z,0.145
2022-11-03T21:00:01.434Z,0.17400000000000002
2022-11-03T21:05:01.340Z,0.14300000000000002
2022-11-03T21:10:01.372Z,0.134
2022-11-03T21:15:01.425Z,0.125
2022-11-03T21:20:01.599Z,0.145
2022-11-03T21:25:01.377Z,0.121
2022-11-03T21:30:01.436Z,0.151
2022-11-03T21:35:01.423Z,0.185
2022-11-03T21:40:01.357Z,0.20600000000000002
2022-11-03T21:45:01.490Z,0.18
2022-11-03T21:50:01.760Z,0.162
2022-11-03T21:55:01.421Z,0.132
2022-11-03T22:00:01.443Z,0.154
2022-11-03T22:05:02.550Z,0.04
2022-11-03T22:10:01.422Z,0.066
2022-11-03T22:15:01.506Z,0.037
2022-11-03T22:20:01.560Z,0.077
2022-11-03T22:25:01.444Z,0.062
2022-11-03T22:30:01.570Z,0.14300000000000002
2022-11-03T22:35:01.407Z,0.198
2022-11-03T22:40:01.467Z,0.066
2022-11-03T22:45:01.508Z,0.034
2022-11-03T22:50:02.139Z,0.068
2022-11-03T22:55:01.442Z,0.03
2022-11-03T23:00:01.537Z,0.061
2022-11-03T23:05:01.546Z,0.025
2022-11-03T23:10:01.686Z,0.052000000000000005
2022-11-03T23:15:01.546Z,0.026000000000000002
2022-11-03T23:20:01.654Z,0.058
2022-11-03T23:25:01.429Z,0.028
2022-11-03T23:30:01.500Z,0.033
2022-11-03T23:35:01.516Z,0.05
2022-11-03T23:40:01.591Z,0.034
2022-11-03T23:45:01.669Z,0.048
2022-11-03T23:50:01.464Z,0.025
2022-11-03T23:55:01.466Z,0.053
